sensor_id;sensor_type;location;lat;lon;timestamp;pressure;altitude;pressure_sealevel;temperature;humidity
7480;BME280;3781;42.272;22.658;2023-11-22T00:00:27;93705.78;;;19.52;42.67
7480;BME280;3781;42.272;22.658;2023-11-22T00:02:54;93699.06;;;18.86;43.86
7480;BME280;3781;42.272;22.658;2023-11-22T00:05:21;93697.06;;;18.75;43.91
7480;BME280;3781;42.272;22.658;2023-11-22T00:07:48;93709.88;;;18.52;44.10
7480;BME280;3781;42.272;22.658;2023-11-22T00:10:15;93712.84;;;18.09;45.75
7480;BME280;3781;42.272;22.658;2023-11-22T00:12:43;93698.69;;;18.83;44.51
7480;BME280;3781;42.272;22.658;2023-11-22T00:15:10;93696.50;;;18.47;44.81
7480;BME280;3781;42.272;22.658;2023-11-22T00:17:37;93700.94;;;18.86;44.25
7480;BME280;3781;42.272;22.658;2023-11-22T00:20:05;93689.44;;;18.54;44.77
7480;BME280;3781;42.272;22.658;2023-11-22T00:22:33;93707.22;;;18.26;45.35
7480;BME280;3781;42.272;22.658;2023-11-22T00:25:00;93713.25;;;17.93;46.09
7480;BME280;3781;42.272;22.658;2023-11-22T00:27:27;93702.56;;;18.54;44.96
7480;BME280;3781;42.272;22.658;2023-11-22T00:29:56;93690.47;;;19.17;43.62
7480;BME280;3781;42.272;22.658;2023-11-22T00:32:23;93686.56;;;18.68;43.94
7480;BME280;3781;42.272;22.658;2023-11-22T00:34:51;93699.00;;;19.12;43.34
7480;BME280;3781;42.272;22.658;2023-11-22T00:37:18;93710.03;;;19.47;42.61
7480;BME280;3781;42.272;22.658;2023-11-22T00:39:45;93703.75;;;19.48;42.53
7480;BME280;3781;42.272;22.658;2023-11-22T00:42:12;93690.66;;;19.73;41.32
7480;BME280;3781;42.272;22.658;2023-11-22T00:44:39;93701.03;;;19.99;40.83
7480;BME280;3781;42.272;22.658;2023-11-22T00:47:07;93701.25;;;20.53;40.55
7480;BME280;3781;42.272;22.658;2023-11-22T00:49:34;93697.97;;;20.58;40.00
7480;BME280;3781;42.272;22.658;2023-11-22T00:52:01;93695.59;;;20.74;39.17
7480;BME280;3781;42.272;22.658;2023-11-22T00:54:28;93693.84;;;20.86;38.82
7480;BME280;3781;42.272;22.658;2023-11-22T00:56:55;93670.94;;;20.62;39.44
7480;BME280;3781;42.272;22.658;2023-11-22T00:59:22;93687.63;;;20.56;39.58
7480;BME280;3781;42.272;22.658;2023-11-22T01:01:48;93678.97;;;20.49;39.71
7480;BME280;3781;42.272;22.658;2023-11-22T01:04:17;93681.38;;;20.93;39.54
7480;BME280;3781;42.272;22.658;2023-11-22T01:06:44;93685.63;;;20.76;39.48
7480;BME280;3781;42.272;22.658;2023-11-22T01:09:11;93683.75;;;20.83;39.57
7480;BME280;3781;42.272;22.658;2023-11-22T01:11:39;93666.75;;;20.73;39.59
7480;BME280;3781;42.272;22.658;2023-11-22T01:14:06;93675.03;;;20.58;40.46
7480;BME280;3781;42.272;22.658;2023-11-22T01:16:33;93685.00;;;20.32;40.14
7480;BME280;3781;42.272;22.658;2023-11-22T01:18:59;93677.50;;;20.53;39.80
7480;BME280;3781;42.272;22.658;2023-11-22T01:21:28;93677.19;;;20.68;40.13
7480;BME280;3781;42.272;22.658;2023-11-22T01:23:55;93673.09;;;20.47;40.35
7480;BME280;3781;42.272;22.658;2023-11-22T01:26:23;93608.06;;;19.61;41.61
7480;BME280;3781;42.272;22.658;2023-11-22T01:28:50;93666.81;;;19.61;42.33
7480;BME280;3781;42.272;22.658;2023-11-22T01:31:17;93661.50;;;19.23;43.40
7480;BME280;3781;42.272;22.658;2023-11-22T01:33:46;93669.75;;;19.46;43.24
7480;BME280;3781;42.272;22.658;2023-11-22T01:36:13;93650.66;;;19.51;43.49
7480;BME280;3781;42.272;22.658;2023-11-22T01:38:42;93661.50;;;19.99;42.88
7480;BME280;3781;42.272;22.658;2023-11-22T01:41:10;93652.94;;;20.03;42.48
7480;BME280;3781;42.272;22.658;2023-11-22T01:43:38;93643.81;;;20.06;42.46
7480;BME280;3781;42.272;22.658;2023-11-22T01:46:07;93647.34;;;20.24;42.33
7480;BME280;3781;42.272;22.658;2023-11-22T01:48:35;93633.59;;;19.91;42.58
7480;BME280;3781;42.272;22.658;2023-11-22T01:51:03;93578.91;;;18.80;44.33
7480;BME280;3781;42.272;22.658;2023-11-22T01:53:32;93599.94;;;19.24;43.95
7480;BME280;3781;42.272;22.658;2023-11-22T01:56:01;93632.66;;;20.04;43.17
7480;BME280;3781;42.272;22.658;2023-11-22T01:58:28;93638.22;;;19.96;43.10
7480;BME280;3781;42.272;22.658;2023-11-22T02:00:55;93632.66;;;20.35;42.39
7480;BME280;3781;42.272;22.658;2023-11-22T02:03:24;93631.06;;;20.27;41.52
7480;BME280;3781;42.272;22.658;2023-11-22T02:05:51;93613.56;;;19.84;42.39
7480;BME280;3781;42.272;22.658;2023-11-22T02:08:19;93619.66;;;19.09;44.24
7480;BME280;3781;42.272;22.658;2023-11-22T02:10:57;93618.13;;;18.88;45.69
7480;BME280;3781;42.272;22.658;2023-11-22T02:13:25;93573.94;;;18.59;46.32
7480;BME280;3781;42.272;22.658;2023-11-22T02:15:53;93614.84;;;18.99;45.03
7480;BME280;3781;42.272;22.658;2023-11-22T02:18:21;93617.19;;;18.63;45.82
7480;BME280;3781;42.272;22.658;2023-11-22T02:20:48;93604.25;;;18.68;46.02
7480;BME280;3781;42.272;22.658;2023-11-22T02:23:17;93610.34;;;18.49;46.50
7480;BME280;3781;42.272;22.658;2023-11-22T02:25:44;93606.53;;;17.99;46.93
7480;BME280;3781;42.272;22.658;2023-11-22T02:28:11;93599.06;;;18.29;47.08
7480;BME280;3781;42.272;22.658;2023-11-22T02:30:39;93600.91;;;18.02;47.48
7480;BME280;3781;42.272;22.658;2023-11-22T02:33:06;93603.03;;;18.57;46.75
7480;BME280;3781;42.272;22.658;2023-11-22T02:35:32;93607.94;;;19.05;45.35
7480;BME280;3781;42.272;22.658;2023-11-22T02:38:00;93610.44;;;19.37;44.52
7480;BME280;3781;42.272;22.658;2023-11-22T02:40:28;93612.63;;;19.34;44.93
7480;BME280;3781;42.272;22.658;2023-11-22T02:42:55;93613.69;;;18.82;45.78
7480;BME280;3781;42.272;22.658;2023-11-22T02:45:26;93617.69;;;18.98;45.90
7480;BME280;3781;42.272;22.658;2023-11-22T02:47:53;93616.66;;;18.08;47.57
7480;BME280;3781;42.272;22.658;2023-11-22T02:50:20;93620.69;;;18.11;47.62
7480;BME280;3781;42.272;22.658;2023-11-22T02:52:47;93611.03;;;17.98;47.82
7480;BME280;3781;42.272;22.658;2023-11-22T02:55:14;93611.31;;;18.74;46.65
7480;BME280;3781;42.272;22.658;2023-11-22T02:57:42;93609.34;;;19.07;46.61
7480;BME280;3781;42.272;22.658;2023-11-22T03:00:11;93618.97;;;19.26;45.81
7480;BME280;3781;42.272;22.658;2023-11-22T03:02:40;93613.66;;;19.39;45.19
7480;BME280;3781;42.272;22.658;2023-11-22T03:05:07;93617.13;;;19.33;45.75
7480;BME280;3781;42.272;22.658;2023-11-22T03:07:35;93622.78;;;19.30;45.35
7480;BME280;3781;42.272;22.658;2023-11-22T03:10:02;93617.66;;;19.04;45.81
7480;BME280;3781;42.272;22.658;2023-11-22T03:12:29;93603.78;;;18.84;46.37
7480;BME280;3781;42.272;22.658;2023-11-22T03:14:57;93607.13;;;19.04;46.71
7480;BME280;3781;42.272;22.658;2023-11-22T03:17:27;93614.16;;;18.66;47.33
7480;BME280;3781;42.272;22.658;2023-11-22T03:19:54;93617.66;;;19.04;46.22
7480;BME280;3781;42.272;22.658;2023-11-22T03:22:22;93625.81;;;19.34;45.95
7480;BME280;3781;42.272;22.658;2023-11-22T03:24:49;93624.19;;;19.71;44.79
7480;BME280;3781;42.272;22.658;2023-11-22T03:27:16;93637.16;;;19.72;44.83
7480;BME280;3781;42.272;22.658;2023-11-22T03:29:43;93619.09;;;19.76;44.84
7480;BME280;3781;42.272;22.658;2023-11-22T03:32:13;93622.09;;;20.35;44.18
7480;BME280;3781;42.272;22.658;2023-11-22T03:34:40;93632.13;;;20.26;43.84
7480;BME280;3781;42.272;22.658;2023-11-22T03:37:05;93619.47;;;20.53;43.49
7480;BME280;3781;42.272;22.658;2023-11-22T03:39:32;93623.00;;;20.65;43.52
7480;BME280;3781;42.272;22.658;2023-11-22T03:41:59;93611.06;;;20.63;43.61
7480;BME280;3781;42.272;22.658;2023-11-22T03:44:26;93630.22;;;20.76;43.44
7480;BME280;3781;42.272;22.658;2023-11-22T03:46:54;93628.44;;;20.88;43.34
7480;BME280;3781;42.272;22.658;2023-11-22T03:49:22;93547.38;;;20.41;43.62
7480;BME280;3781;42.272;22.658;2023-11-22T03:51:49;93642.50;;;20.64;43.19
7480;BME280;3781;42.272;22.658;2023-11-22T03:54:16;93631.59;;;20.61;43.45
7480;BME280;3781;42.272;22.658;2023-11-22T03:56:44;93641.78;;;20.75;43.27
7480;BME280;3781;42.272;22.658;2023-11-22T03:59:10;93625.13;;;20.07;44.58
7480;BME280;3781;42.272;22.658;2023-11-22T04:01:37;93644.38;;;20.39;44.14
7480;BME280;3781;42.272;22.658;2023-11-22T04:04:04;93642.25;;;20.48;43.52
7480;BME280;3781;42.272;22.658;2023-11-22T04:06:33;93632.09;;;20.69;43.49
7480;BME280;3781;42.272;22.658;2023-11-22T04:08:59;93652.13;;;20.34;43.62
7480;BME280;3781;42.272;22.658;2023-11-22T04:11:26;93650.81;;;20.43;43.44
7480;BME280;3781;42.272;22.658;2023-11-22T04:13:54;93660.25;;;19.77;44.99
7480;BME280;3781;42.272;22.658;2023-11-22T04:16:21;93658.31;;;19.08;46.67
7480;BME280;3781;42.272;22.658;2023-11-22T04:18:48;93657.25;;;19.35;45.90
7480;BME280;3781;42.272;22.658;2023-11-22T04:21:15;93659.13;;;19.60;46.12
7480;BME280;3781;42.272;22.658;2023-11-22T04:23:43;93668.91;;;19.84;45.71
7480;BME280;3781;42.272;22.658;2023-11-22T04:26:10;93672.47;;;19.96;44.95
7480;BME280;3781;42.272;22.658;2023-11-22T04:28:37;93668.22;;;19.95;44.88
7480;BME280;3781;42.272;22.658;2023-11-22T04:31:04;93666.25;;;19.84;45.28
7480;BME280;3781;42.272;22.658;2023-11-22T04:33:30;93669.00;;;19.26;47.02
7480;BME280;3781;42.272;22.658;2023-11-22T04:35:57;93671.44;;;19.21;47.06
7480;BME280;3781;42.272;22.658;2023-11-22T04:38:24;93665.88;;;18.98;48.08
7480;BME280;3781;42.272;22.658;2023-11-22T04:40:52;93668.38;;;19.69;47.07
7480;BME280;3781;42.272;22.658;2023-11-22T04:43:19;93677.72;;;19.65;46.55
7480;BME280;3781;42.272;22.658;2023-11-22T04:45:46;93682.69;;;19.48;46.59
7480;BME280;3781;42.272;22.658;2023-11-22T04:48:13;93682.22;;;19.58;46.70
7480;BME280;3781;42.272;22.658;2023-11-22T04:50:40;93695.66;;;19.49;46.48
7480;BME280;3781;42.272;22.658;2023-11-22T04:53:08;93702.06;;;19.16;48.00
7480;BME280;3781;42.272;22.658;2023-11-22T04:55:35;93696.50;;;19.43;47.09
7480;BME280;3781;42.272;22.658;2023-11-22T04:58:03;93699.03;;;19.63;46.79
7480;BME280;3781;42.272;22.658;2023-11-22T05:00:30;93708.41;;;19.84;46.39
7480;BME280;3781;42.272;22.658;2023-11-22T05:02:57;93708.34;;;19.97;45.75
7480;BME280;3781;42.272;22.658;2023-11-22T05:05:23;93706.78;;;19.51;46.28
7480;BME280;3781;42.272;22.658;2023-11-22T05:07:50;93693.28;;;19.35;47.02
7480;BME280;3781;42.272;22.658;2023-11-22T05:10:18;93721.19;;;19.42;47.49
7480;BME280;3781;42.272;22.658;2023-11-22T05:12:45;93711.22;;;18.94;48.20
7480;BME280;3781;42.272;22.658;2023-11-22T05:15:13;93725.22;;;19.51;47.84
7480;BME280;3781;42.272;22.658;2023-11-22T05:17:41;93727.19;;;19.63;46.45
7480;BME280;3781;42.272;22.658;2023-11-22T05:20:08;93731.88;;;20.29;45.64
7480;BME280;3781;42.272;22.658;2023-11-22T05:22:36;93736.41;;;20.47;45.05
7480;BME280;3781;42.272;22.658;2023-11-22T05:25:03;93741.19;;;20.01;45.41
7480;BME280;3781;42.272;22.658;2023-11-22T05:27:30;93743.78;;;19.70;45.78
7480;BME280;3781;42.272;22.658;2023-11-22T05:29:58;93721.44;;;19.21;47.04
7480;BME280;3781;42.272;22.658;2023-11-22T05:32:27;93754.75;;;19.60;47.38
7480;BME280;3781;42.272;22.658;2023-11-22T05:34:54;93752.69;;;18.98;47.99
7480;BME280;3781;42.272;22.658;2023-11-22T05:37:21;93752.22;;;19.27;47.44
7480;BME280;3781;42.272;22.658;2023-11-22T05:39:48;93759.69;;;19.43;47.18
7480;BME280;3781;42.272;22.658;2023-11-22T05:42:14;93733.66;;;19.67;46.89
7480;BME280;3781;42.272;22.658;2023-11-22T05:44:41;93746.81;;;20.04;46.12
7480;BME280;3781;42.272;22.658;2023-11-22T05:47:08;93744.00;;;20.37;45.38
7480;BME280;3781;42.272;22.658;2023-11-22T05:49:36;93727.56;;;20.60;45.38
7480;BME280;3781;42.272;22.658;2023-11-22T05:52:04;93737.22;;;20.48;45.06
7480;BME280;3781;42.272;22.658;2023-11-22T05:54:31;93738.75;;;20.62;44.68
7480;BME280;3781;42.272;22.658;2023-11-22T05:56:58;93748.03;;;20.64;45.05
7480;BME280;3781;42.272;22.658;2023-11-22T05:59:26;93726.63;;;20.54;45.00
7480;BME280;3781;42.272;22.658;2023-11-22T06:01:53;93757.75;;;20.70;44.81
7480;BME280;3781;42.272;22.658;2023-11-22T06:04:19;93753.06;;;19.79;46.30
7480;BME280;3781;42.272;22.658;2023-11-22T06:06:48;93776.66;;;20.36;45.91
7480;BME280;3781;42.272;22.658;2023-11-22T06:09:14;93791.34;;;20.19;45.98
7480;BME280;3781;42.272;22.658;2023-11-22T06:11:41;93781.44;;;19.77;46.73
7480;BME280;3781;42.272;22.658;2023-11-22T06:14:08;93751.97;;;19.55;46.77
7480;BME280;3781;42.272;22.658;2023-11-22T06:16:35;93792.25;;;20.06;46.62
7480;BME280;3781;42.272;22.658;2023-11-22T06:19:02;93794.88;;;20.44;45.67
7480;BME280;3781;42.272;22.658;2023-11-22T06:21:29;93796.44;;;20.52;45.18
7480;BME280;3781;42.272;22.658;2023-11-22T06:23:57;93806.03;;;20.95;44.92
7480;BME280;3781;42.272;22.658;2023-11-22T06:26:24;93801.41;;;20.91;44.60
7480;BME280;3781;42.272;22.658;2023-11-22T06:28:51;93781.22;;;20.78;44.65
7480;BME280;3781;42.272;22.658;2023-11-22T06:31:18;93807.31;;;21.18;44.08
7480;BME280;3781;42.272;22.658;2023-11-22T06:33:45;93802.69;;;20.82;44.55
7480;BME280;3781;42.272;22.658;2023-11-22T06:36:12;93808.59;;;21.09;44.05
7480;BME280;3781;42.272;22.658;2023-11-22T06:38:40;93810.63;;;20.57;46.08
7480;BME280;3781;42.272;22.658;2023-11-22T06:41:08;93820.56;;;20.24;47.21
7480;BME280;3781;42.272;22.658;2023-11-22T06:43:35;93829.19;;;19.93;47.63
7480;BME280;3781;42.272;22.658;2023-11-22T06:46:02;93823.00;;;20.19;47.42
7480;BME280;3781;42.272;22.658;2023-11-22T06:48:31;93808.78;;;20.58;46.67
7480;BME280;3781;42.272;22.658;2023-11-22T06:50:59;93822.03;;;20.76;46.33
7480;BME280;3781;42.272;22.658;2023-11-22T06:53:26;93830.41;;;20.66;46.34
7480;BME280;3781;42.272;22.658;2023-11-22T06:55:53;93820.41;;;21.06;45.54
7480;BME280;3781;42.272;22.658;2023-11-22T06:58:21;93844.91;;;21.38;45.80
7480;BME280;3781;42.272;22.658;2023-11-22T07:00:48;93824.22;;;21.10;45.46
7480;BME280;3781;42.272;22.658;2023-11-22T07:03:15;93827.53;;;21.24;45.55
7480;BME280;3781;42.272;22.658;2023-11-22T07:05:42;93824.75;;;21.19;45.21
7480;BME280;3781;42.272;22.658;2023-11-22T07:08:09;93831.69;;;21.38;45.51
7480;BME280;3781;42.272;22.658;2023-11-22T07:10:36;93832.38;;;21.69;44.89
7480;BME280;3781;42.272;22.658;2023-11-22T07:13:03;93833.88;;;21.77;44.71
7480;BME280;3781;42.272;22.658;2023-11-22T07:15:31;93844.75;;;22.23;44.22
7480;BME280;3781;42.272;22.658;2023-11-22T07:17:58;93860.28;;;22.20;44.17
7480;BME280;3781;42.272;22.658;2023-11-22T07:20:25;93853.84;;;22.27;44.05
7480;BME280;3781;42.272;22.658;2023-11-22T07:22:52;93862.78;;;22.15;44.51
7480;BME280;3781;42.272;22.658;2023-11-22T07:25:23;93847.72;;;21.97;44.29
7480;BME280;3781;42.272;22.658;2023-11-22T07:27:51;93854.25;;;22.13;43.79
7480;BME280;3781;42.272;22.658;2023-11-22T07:30:19;93861.34;;;22.30;43.58
7480;BME280;3781;42.272;22.658;2023-11-22T07:32:50;93867.09;;;22.57;42.58
7480;BME280;3781;42.272;22.658;2023-11-22T07:35:17;93848.78;;;22.56;42.86
7480;BME280;3781;42.272;22.658;2023-11-22T07:37:45;93853.03;;;22.75;42.34
7480;BME280;3781;42.272;22.658;2023-11-22T07:40:13;93871.97;;;22.90;41.71
7480;BME280;3781;42.272;22.658;2023-11-22T07:42:41;93853.53;;;22.95;40.99
7480;BME280;3781;42.272;22.658;2023-11-22T07:45:09;93864.63;;;23.15;40.94
7480;BME280;3781;42.272;22.658;2023-11-22T07:47:37;93872.13;;;23.18;40.50
7480;BME280;3781;42.272;22.658;2023-11-22T07:50:08;93875.88;;;23.63;40.65
7480;BME280;3781;42.272;22.658;2023-11-22T07:52:35;93870.91;;;23.55;40.05
7480;BME280;3781;42.272;22.658;2023-11-22T07:55:04;93871.81;;;23.49;39.89
7480;BME280;3781;42.272;22.658;2023-11-22T07:57:33;93878.97;;;23.60;39.90
7480;BME280;3781;42.272;22.658;2023-11-22T08:00:00;93878.97;;;23.37;40.18
7480;BME280;3781;42.272;22.658;2023-11-22T08:02:32;93879.50;;;23.16;40.26
7480;BME280;3781;42.272;22.658;2023-11-22T08:04:59;93879.59;;;23.21;39.83
7480;BME280;3781;42.272;22.658;2023-11-22T08:07:28;93888.19;;;23.69;40.25
7480;BME280;3781;42.272;22.658;2023-11-22T08:09:55;93893.28;;;23.06;41.01
7480;BME280;3781;42.272;22.658;2023-11-22T08:12:22;93893.28;;;23.59;40.54
7480;BME280;3781;42.272;22.658;2023-11-22T08:14:49;93883.34;;;23.66;39.79
7480;BME280;3781;42.272;22.658;2023-11-22T08:17:21;93881.97;;;23.52;40.05
7480;BME280;3781;42.272;22.658;2023-11-22T08:19:47;93888.66;;;23.89;38.80
7480;BME280;3781;42.272;22.658;2023-11-22T08:22:15;93890.72;;;24.11;39.25
7480;BME280;3781;42.272;22.658;2023-11-22T08:24:43;93885.28;;;24.17;39.73
7480;BME280;3781;42.272;22.658;2023-11-22T08:27:11;93891.97;;;24.20;38.87
7480;BME280;3781;42.272;22.658;2023-11-22T08:29:39;93887.41;;;24.32;38.82
7480;BME280;3781;42.272;22.658;2023-11-22T08:32:06;93893.81;;;24.59;38.38
7480;BME280;3781;42.272;22.658;2023-11-22T08:34:33;93882.13;;;24.60;38.34
7480;BME280;3781;42.272;22.658;2023-11-22T08:37:00;93891.72;;;24.61;38.31
7480;BME280;3781;42.272;22.658;2023-11-22T08:39:27;93888.78;;;24.46;38.29
7480;BME280;3781;42.272;22.658;2023-11-22T08:41:56;93904.22;;;24.89;37.85
7480;BME280;3781;42.272;22.658;2023-11-22T08:44:23;93896.16;;;24.44;37.74
7480;BME280;3781;42.272;22.658;2023-11-22T08:46:50;93904.88;;;24.56;37.88
7480;BME280;3781;42.272;22.658;2023-11-22T08:49:18;93906.84;;;24.60;38.08
7480;BME280;3781;42.272;22.658;2023-11-22T08:51:45;93906.81;;;24.72;37.47
7480;BME280;3781;42.272;22.658;2023-11-22T08:54:13;93907.94;;;24.88;36.93
7480;BME280;3781;42.272;22.658;2023-11-22T08:56:40;93905.34;;;24.93;37.12
7480;BME280;3781;42.272;22.658;2023-11-22T08:59:09;93911.03;;;25.13;36.90
7480;BME280;3781;42.272;22.658;2023-11-22T09:01:36;93916.59;;;24.83;37.21
7480;BME280;3781;42.272;22.658;2023-11-22T09:04:03;93906.03;;;24.60;37.60
7480;BME280;3781;42.272;22.658;2023-11-22T09:06:30;93924.03;;;24.58;37.80
7480;BME280;3781;42.272;22.658;2023-11-22T09:08:58;93921.63;;;24.56;38.03
7480;BME280;3781;42.272;22.658;2023-11-22T09:11:25;93918.72;;;24.58;38.48
7480;BME280;3781;42.272;22.658;2023-11-22T09:13:52;93917.84;;;24.52;37.54
7480;BME280;3781;42.272;22.658;2023-11-22T09:16:23;93917.50;;;24.89;37.64
7480;BME280;3781;42.272;22.658;2023-11-22T09:18:51;93919.97;;;24.67;37.57
7480;BME280;3781;42.272;22.658;2023-11-22T09:21:20;93919.97;;;24.79;37.88
7480;BME280;3781;42.272;22.658;2023-11-22T09:23:47;93918.94;;;24.68;37.90
7480;BME280;3781;42.272;22.658;2023-11-22T09:26:14;93918.53;;;24.48;37.96
7480;BME280;3781;42.272;22.658;2023-11-22T09:28:41;93913.28;;;24.76;37.78
7480;BME280;3781;42.272;22.658;2023-11-22T09:31:08;93921.69;;;24.73;37.84
7480;BME280;3781;42.272;22.658;2023-11-22T09:33:40;93930.03;;;25.21;37.51
7480;BME280;3781;42.272;22.658;2023-11-22T09:36:08;93925.44;;;25.17;37.63
7480;BME280;3781;42.272;22.658;2023-11-22T09:38:36;93930.63;;;24.95;37.80
7480;BME280;3781;42.272;22.658;2023-11-22T09:41:04;93924.13;;;25.03;37.77
7480;BME280;3781;42.272;22.658;2023-11-22T09:43:33;93920.09;;;25.00;37.89
7480;BME280;3781;42.272;22.658;2023-11-22T09:46:00;93905.84;;;24.90;37.89
7480;BME280;3781;42.272;22.658;2023-11-22T09:48:28;93917.31;;;25.23;37.69
7480;BME280;3781;42.272;22.658;2023-11-22T09:51:09;93909.78;;;25.65;36.63
7480;BME280;3781;42.272;22.658;2023-11-22T09:53:47;93918.19;;;25.57;36.85
7480;BME280;3781;42.272;22.658;2023-11-22T09:56:19;93910.75;;;25.76;37.05
7480;BME280;3781;42.272;22.658;2023-11-22T09:58:47;93910.41;;;25.89;36.76
7480;BME280;3781;42.272;22.658;2023-11-22T10:01:17;93915.25;;;25.75;37.23
7480;BME280;3781;42.272;22.658;2023-11-22T10:03:44;93914.28;;;25.81;36.55
7480;BME280;3781;42.272;22.658;2023-11-22T10:06:13;93908.13;;;26.14;35.94
7480;BME280;3781;42.272;22.658;2023-11-22T10:08:40;93912.63;;;25.97;36.54
7480;BME280;3781;42.272;22.658;2023-11-22T10:11:07;93915.56;;;26.12;36.03
7480;BME280;3781;42.272;22.658;2023-11-22T10:13:34;93915.56;;;26.12;35.65
7480;BME280;3781;42.272;22.658;2023-11-22T10:16:09;93903.19;;;26.44;34.69
7480;BME280;3781;42.272;22.658;2023-11-22T10:18:39;93916.72;;;26.43;35.01
7480;BME280;3781;42.272;22.658;2023-11-22T10:21:19;93873.66;;;25.86;35.64
7480;BME280;3781;42.272;22.658;2023-11-22T10:23:47;93886.22;;;25.40;36.75
7480;BME280;3781;42.272;22.658;2023-11-22T10:26:17;93929.44;;;25.48;36.37
7480;BME280;3781;42.272;22.658;2023-11-22T10:28:44;93915.63;;;25.17;37.20
7480;BME280;3781;42.272;22.658;2023-11-22T10:31:10;93923.75;;;25.27;37.19
7480;BME280;3781;42.272;22.658;2023-11-22T10:33:39;93926.88;;;25.53;37.37
7480;BME280;3781;42.272;22.658;2023-11-22T10:36:07;93921.75;;;25.18;37.20
7480;BME280;3781;42.272;22.658;2023-11-22T10:38:36;93911.38;;;25.16;37.31
7480;BME280;3781;42.272;22.658;2023-11-22T10:41:04;93906.19;;;25.10;37.67
7480;BME280;3781;42.272;22.658;2023-11-22T10:43:31;93916.84;;;24.70;37.73
7480;BME280;3781;42.272;22.658;2023-11-22T10:46:01;93904.97;;;25.01;37.71
7480;BME280;3781;42.272;22.658;2023-11-22T10:48:28;93921.09;;;25.11;37.48
7480;BME280;3781;42.272;22.658;2023-11-22T10:50:57;93920.22;;;25.38;37.26
7480;BME280;3781;42.272;22.658;2023-11-22T10:53:31;93925.31;;;25.90;36.54
7480;BME280;3781;42.272;22.658;2023-11-22T10:56:04;93932.81;;;25.93;36.42
7480;BME280;3781;42.272;22.658;2023-11-22T10:58:32;93935.69;;;26.08;35.84
7480;BME280;3781;42.272;22.658;2023-11-22T11:01:01;93939.75;;;25.94;35.76
7480;BME280;3781;42.272;22.658;2023-11-22T11:03:37;93942.00;;;25.35;37.67
7480;BME280;3781;42.272;22.658;2023-11-22T11:06:08;93945.00;;;25.56;36.72
7480;BME280;3781;42.272;22.658;2023-11-22T11:08:38;93935.97;;;25.57;36.50
7480;BME280;3781;42.272;22.658;2023-11-22T11:11:07;93922.66;;;25.90;36.65
7480;BME280;3781;42.272;22.658;2023-11-22T11:13:34;93915.88;;;25.16;36.60
7480;BME280;3781;42.272;22.658;2023-11-22T11:16:02;93911.50;;;25.93;36.41
7480;BME280;3781;42.272;22.658;2023-11-22T11:18:29;93922.25;;;25.98;36.09
7480;BME280;3781;42.272;22.658;2023-11-22T11:20:56;93927.81;;;25.96;36.56
7480;BME280;3781;42.272;22.658;2023-11-22T11:23:25;93922.69;;;25.57;36.83
7480;BME280;3781;42.272;22.658;2023-11-22T11:25:53;93925.44;;;25.62;36.34
7480;BME280;3781;42.272;22.658;2023-11-22T11:28:22;93933.13;;;25.96;35.95
7480;BME280;3781;42.272;22.658;2023-11-22T11:30:51;93936.31;;;25.77;36.61
7480;BME280;3781;42.272;22.658;2023-11-22T11:33:26;93947.16;;;26.25;35.84
7480;BME280;3781;42.272;22.658;2023-11-22T11:35:56;93946.16;;;26.31;35.82
7480;BME280;3781;42.272;22.658;2023-11-22T11:38:30;93939.97;;;26.47;35.46
7480;BME280;3781;42.272;22.658;2023-11-22T11:41:06;93938.09;;;26.69;35.20
7480;BME280;3781;42.272;22.658;2023-11-22T11:43:41;93944.53;;;26.90;35.01
7480;BME280;3781;42.272;22.658;2023-11-22T11:46:08;93940.34;;;26.77;34.93
7480;BME280;3781;42.272;22.658;2023-11-22T11:48:36;93944.75;;;26.88;34.67
7480;BME280;3781;42.272;22.658;2023-11-22T11:51:03;93943.91;;;26.83;34.85
7480;BME280;3781;42.272;22.658;2023-11-22T11:53:32;93947.78;;;26.75;34.78
7480;BME280;3781;42.272;22.658;2023-11-22T11:56:01;93934.25;;;26.60;35.22
7480;BME280;3781;42.272;22.658;2023-11-22T11:58:28;93940.66;;;26.59;34.97
7480;BME280;3781;42.272;22.658;2023-11-22T12:00:56;93932.66;;;26.59;35.04
7480;BME280;3781;42.272;22.658;2023-11-22T12:03:23;93934.34;;;26.44;34.56
7480;BME280;3781;42.272;22.658;2023-11-22T12:05:50;93942.06;;;26.45;34.93
7480;BME280;3781;42.272;22.658;2023-11-22T12:08:17;93936.53;;;25.92;35.55
7480;BME280;3781;42.272;22.658;2023-11-22T12:10:45;93902.75;;;26.31;34.75
7480;BME280;3781;42.272;22.658;2023-11-22T12:13:16;93920.66;;;26.78;34.51
7480;BME280;3781;42.272;22.658;2023-11-22T12:15:43;93923.56;;;26.55;34.63
7480;BME280;3781;42.272;22.658;2023-11-22T12:18:12;93918.97;;;26.72;34.53
7480;BME280;3781;42.272;22.658;2023-11-22T12:20:39;93952.53;;;26.52;34.71
7480;BME280;3781;42.272;22.658;2023-11-22T12:23:06;93944.41;;;27.07;34.13
7480;BME280;3781;42.272;22.658;2023-11-22T12:25:33;93923.19;;;27.17;33.97
7480;BME280;3781;42.272;22.658;2023-11-22T12:28:02;93944.84;;;27.47;33.23
7480;BME280;3781;42.272;22.658;2023-11-22T12:30:31;93940.94;;;27.33;33.69
7480;BME280;3781;42.272;22.658;2023-11-22T12:33:01;93941.81;;;27.12;33.74
7480;BME280;3781;42.272;22.658;2023-11-22T12:35:31;93945.47;;;27.32;33.62
7480;BME280;3781;42.272;22.658;2023-11-22T12:37:59;93953.44;;;27.27;33.55
7480;BME280;3781;42.272;22.658;2023-11-22T12:40:27;93959.16;;;27.36;33.62
7480;BME280;3781;42.272;22.658;2023-11-22T12:42:56;93954.41;;;27.16;33.80
7480;BME280;3781;42.272;22.658;2023-11-22T12:45:25;93967.69;;;27.38;34.25
7480;BME280;3781;42.272;22.658;2023-11-22T12:47:54;93983.78;;;27.48;34.36
7480;BME280;3781;42.272;22.658;2023-11-22T12:50:35;93957.84;;;27.70;33.43
7480;BME280;3781;42.272;22.658;2023-11-22T12:53:08;93967.63;;;27.91;33.56
7480;BME280;3781;42.272;22.658;2023-11-22T12:55:37;93982.00;;;27.85;33.66
7480;BME280;3781;42.272;22.658;2023-11-22T12:58:04;93984.81;;;28.00;33.35
7480;BME280;3781;42.272;22.658;2023-11-22T13:00:31;93976.84;;;28.05;33.10
7480;BME280;3781;42.272;22.658;2023-11-22T13:02:58;93990.38;;;28.35;32.85
7480;BME280;3781;42.272;22.658;2023-11-22T13:05:25;93988.72;;;28.24;32.90
7480;BME280;3781;42.272;22.658;2023-11-22T13:07:53;93963.72;;;28.46;32.34
7480;BME280;3781;42.272;22.658;2023-11-22T13:10:20;93972.34;;;27.84;32.95
7480;BME280;3781;42.272;22.658;2023-11-22T13:12:52;93989.50;;;27.35;34.17